Terminal Aerodrome Forecast
Issued by NWS

Home | Current Version | Previous Version | Graphics & Text | Print | Product List | Glossary On
Versions: 1 2 3 4 5 6 7 8 9 10 11 12
000
FTUS43 KLSX 230520
TAFSUS
TAF
KSUS 230520Z 2306/2406 02006KT P6SM FEW250
     FM231900 02010G17KT P6SM SKC
     FM240000 VRB04KT P6SM SKC=

USA.gov is the U.S. government's official web portal to all federal, state and local government web resources and services.